New York, New York
Current Conditions -  °F | °C
As of 1:51 AM on Friday 28 Nov 2014 (Local Time) from KNYC Reporting Station
Clear Clear  
Wind Chill: -3°   Ceiling: Unl
Heat Index:   Visibility: 10mi
Dew Point: -5°   Wind: 5mph
Humidity: 69%   Direction: NA
Pressure: 30.1"   Gusts: NA
Location:  40.71°N, 74.01°W
Report Text: KNYC 280651Z AUTO VRB04KT 10SM CLR 00/M05 A3010 RMK AO2 SLP184 T00001050 $
Loading
Personal Weather Stations






























Interactive Weather Map New forecast layout! Learn more

10-Day Weather Forecast

Advertisements
Track Severe Weather on mobile